sensor_id;sensor_type;location;lat;lon;timestamp;P1;durP1;ratioP1;P2;durP2;ratioP2
50789;SDS011;37287;47.554;7.844;2023-08-08T00:01:18;0.85;;;0.85;;
50789;SDS011;37287;47.554;7.844;2023-08-08T00:04:09;1.95;;;0.90;;
50789;SDS011;37287;47.554;7.844;2023-08-08T00:07:00;1.40;;;1.00;;
50789;SDS011;37287;47.554;7.844;2023-08-08T00:09:50;0.73;;;0.73;;
50789;SDS011;37287;47.554;7.844;2023-08-08T00:12:41;0.60;;;0.60;;
50789;SDS011;37287;47.554;7.844;2023-08-08T00:15:36;1.00;;;1.00;;
50789;SDS011;37287;47.554;7.844;2023-08-08T00:18:26;1.10;;;1.00;;
50789;SDS011;37287;47.554;7.844;2023-08-08T00:21:17;1.10;;;0.90;;
50789;SDS011;37287;47.554;7.844;2023-08-08T00:24:10;1.60;;;0.93;;
50789;SDS011;37287;47.554;7.844;2023-08-08T00:27:01;0.80;;;0.80;;
50789;SDS011;37287;47.554;7.844;2023-08-08T00:29:52;0.70;;;0.70;;
50789;SDS011;37287;47.554;7.844;2023-08-08T00:32:44;4.07;;;1.00;;
50789;SDS011;37287;47.554;7.844;2023-08-08T00:35:35;0.82;;;0.82;;
50789;SDS011;37287;47.554;7.844;2023-08-08T00:38:25;1.10;;;1.00;;
50789;SDS011;37287;47.554;7.844;2023-08-08T00:41:16;1.05;;;0.95;;
50789;SDS011;37287;47.554;7.844;2023-08-08T00:44:06;1.00;;;1.00;;
50789;SDS011;37287;47.554;7.844;2023-08-08T00:46:57;1.38;;;1.00;;
50789;SDS011;37287;47.554;7.844;2023-08-08T00:49:47;0.80;;;0.80;;
50789;SDS011;37287;47.554;7.844;2023-08-08T00:53:04;0.93;;;0.85;;
50789;SDS011;37287;47.554;7.844;2023-08-08T00:56:19;0.90;;;0.90;;
50789;SDS011;37287;47.554;7.844;2023-08-08T00:59:35;1.17;;;0.90;;
50789;SDS011;37287;47.554;7.844;2023-08-08T01:02:31;1.23;;;1.10;;
50789;SDS011;37287;47.554;7.844;2023-08-08T01:05:05;1.00;;;1.00;;
50789;SDS011;37287;47.554;7.844;2023-08-08T01:08:03;0.98;;;0.98;;
50789;SDS011;37287;47.554;7.844;2023-08-08T01:10:56;0.82;;;0.82;;
50789;SDS011;37287;47.554;7.844;2023-08-08T01:13:47;1.55;;;1.02;;
50789;SDS011;37287;47.554;7.844;2023-08-08T01:16:40;0.80;;;0.80;;
50789;SDS011;37287;47.554;7.844;2023-08-08T01:19:32;0.80;;;0.80;;
50789;SDS011;37287;47.554;7.844;2023-08-08T01:22:27;1.42;;;0.93;;
50789;SDS011;37287;47.554;7.844;2023-08-08T01:25:33;1.10;;;0.98;;
50789;SDS011;37287;47.554;7.844;2023-08-08T01:28:24;2.20;;;1.00;;
50789;SDS011;37287;47.554;7.844;2023-08-08T01:31:16;1.45;;;0.88;;
50789;SDS011;37287;47.554;7.844;2023-08-08T01:34:06;3.13;;;1.17;;
50789;SDS011;37287;47.554;7.844;2023-08-08T01:36:58;1.95;;;0.90;;
50789;SDS011;37287;47.554;7.844;2023-08-08T01:39:34;1.40;;;0.90;;
50789;SDS011;37287;47.554;7.844;2023-08-08T01:42:01;1.02;;;1.00;;
50789;SDS011;37287;47.554;7.844;2023-08-08T01:44:53;1.88;;;1.00;;
50789;SDS011;37287;47.554;7.844;2023-08-08T01:47:50;1.23;;;0.90;;
50789;SDS011;37287;47.554;7.844;2023-08-08T01:50:22;0.98;;;0.90;;
50789;SDS011;37287;47.554;7.844;2023-08-08T01:52:49;0.85;;;0.80;;
50789;SDS011;37287;47.554;7.844;2023-08-08T01:55:40;2.13;;;0.90;;
50789;SDS011;37287;47.554;7.844;2023-08-08T01:58:30;0.70;;;0.70;;
50789;SDS011;37287;47.554;7.844;2023-08-08T02:01:21;0.88;;;0.88;;
50789;SDS011;37287;47.554;7.844;2023-08-08T02:04:12;1.30;;;1.02;;
50789;SDS011;37287;47.554;7.844;2023-08-08T02:07:03;2.03;;;1.10;;
50789;SDS011;37287;47.554;7.844;2023-08-08T02:09:56;1.13;;;1.02;;
50789;SDS011;37287;47.554;7.844;2023-08-08T02:12:47;1.40;;;0.70;;
50789;SDS011;37287;47.554;7.844;2023-08-08T02:15:37;2.55;;;0.80;;
50789;SDS011;37287;47.554;7.844;2023-08-08T02:18:27;0.90;;;0.90;;
50789;SDS011;37287;47.554;7.844;2023-08-08T02:21:18;2.40;;;1.05;;
50789;SDS011;37287;47.554;7.844;2023-08-08T02:24:09;0.75;;;0.75;;
50789;SDS011;37287;47.554;7.844;2023-08-08T02:27:00;1.50;;;1.05;;
50789;SDS011;37287;47.554;7.844;2023-08-08T02:29:50;1.05;;;0.80;;
50789;SDS011;37287;47.554;7.844;2023-08-08T02:32:41;1.10;;;1.00;;
50789;SDS011;37287;47.554;7.844;2023-08-08T02:35:32;0.80;;;0.80;;
50789;SDS011;37287;47.554;7.844;2023-08-08T02:38:23;1.08;;;1.00;;
50789;SDS011;37287;47.554;7.844;2023-08-08T02:40:55;1.02;;;0.80;;
50789;SDS011;37287;47.554;7.844;2023-08-08T02:43:22;2.00;;;0.90;;
50789;SDS011;37287;47.554;7.844;2023-08-08T02:46:13;1.00;;;1.00;;
50789;SDS011;37287;47.554;7.844;2023-08-08T02:49:07;0.90;;;0.90;;
50789;SDS011;37287;47.554;7.844;2023-08-08T02:51:58;0.90;;;0.90;;
50789;SDS011;37287;47.554;7.844;2023-08-08T02:54:48;1.23;;;1.13;;
50789;SDS011;37287;47.554;7.844;2023-08-08T02:57:39;0.80;;;0.80;;
50789;SDS011;37287;47.554;7.844;2023-08-08T03:00:31;1.00;;;0.90;;
50789;SDS011;37287;47.554;7.844;2023-08-08T03:03:21;0.82;;;0.82;;
50789;SDS011;37287;47.554;7.844;2023-08-08T03:06:12;0.82;;;0.82;;
50789;SDS011;37287;47.554;7.844;2023-08-08T03:09:09;0.95;;;0.85;;
50789;SDS011;37287;47.554;7.844;2023-08-08T03:23:02;1.52;;;1.15;;
50789;SDS011;37287;47.554;7.844;2023-08-08T03:25:53;1.73;;;1.27;;
50789;SDS011;37287;47.554;7.844;2023-08-08T03:28:44;1.25;;;0.90;;
50789;SDS011;37287;47.554;7.844;2023-08-08T03:31:35;2.17;;;0.80;;
50789;SDS011;37287;47.554;7.844;2023-08-08T03:34:07;1.77;;;1.00;;
50789;SDS011;37287;47.554;7.844;2023-08-08T03:36:59;2.22;;;1.00;;
50789;SDS011;37287;47.554;7.844;2023-08-08T03:39:27;0.73;;;0.73;;
50789;SDS011;37287;47.554;7.844;2023-08-08T03:42:18;0.82;;;0.82;;
50789;SDS011;37287;47.554;7.844;2023-08-08T03:45:09;1.10;;;0.88;;
50789;SDS011;37287;47.554;7.844;2023-08-08T03:48:00;0.80;;;0.80;;
50789;SDS011;37287;47.554;7.844;2023-08-08T03:50:51;1.42;;;1.05;;
50789;SDS011;37287;47.554;7.844;2023-08-08T03:53:44;1.33;;;1.20;;
50789;SDS011;37287;47.554;7.844;2023-08-08T03:56:35;1.48;;;0.90;;
50789;SDS011;37287;47.554;7.844;2023-08-08T03:59:26;1.05;;;1.05;;
50789;SDS011;37287;47.554;7.844;2023-08-08T04:02:17;0.82;;;0.82;;
50789;SDS011;37287;47.554;7.844;2023-08-08T04:05:08;0.80;;;0.80;;
50789;SDS011;37287;47.554;7.844;2023-08-08T04:07:59;3.22;;;1.00;;
50789;SDS011;37287;47.554;7.844;2023-08-08T04:10:50;1.00;;;0.90;;
50789;SDS011;37287;47.554;7.844;2023-08-08T04:13:41;0.80;;;0.80;;
50789;SDS011;37287;47.554;7.844;2023-08-08T04:16:34;1.35;;;0.90;;
50789;SDS011;37287;47.554;7.844;2023-08-08T04:19:24;0.98;;;0.98;;
50789;SDS011;37287;47.554;7.844;2023-08-08T04:22:15;2.45;;;1.00;;
50789;SDS011;37287;47.554;7.844;2023-08-08T04:25:07;1.45;;;1.02;;
50789;SDS011;37287;47.554;7.844;2023-08-08T04:27:58;1.17;;;1.10;;
50789;SDS011;37287;47.554;7.844;2023-08-08T04:30:49;1.23;;;1.10;;
50789;SDS011;37287;47.554;7.844;2023-08-08T04:33:19;1.20;;;1.10;;
50789;SDS011;37287;47.554;7.844;2023-08-08T04:35:46;0.90;;;0.90;;
50789;SDS011;37287;47.554;7.844;2023-08-08T04:38:37;2.95;;;0.95;;
50789;SDS011;37287;47.554;7.844;2023-08-08T04:41:32;0.90;;;0.90;;
50789;SDS011;37287;47.554;7.844;2023-08-08T04:44:22;0.93;;;0.93;;
50789;SDS011;37287;47.554;7.844;2023-08-08T04:47:15;1.38;;;1.20;;
50789;SDS011;37287;47.554;7.844;2023-08-08T04:50:06;0.98;;;0.98;;
50789;SDS011;37287;47.554;7.844;2023-08-08T04:52:57;1.33;;;1.23;;
50789;SDS011;37287;47.554;7.844;2023-08-08T04:55:48;0.93;;;0.93;;
50789;SDS011;37287;47.554;7.844;2023-08-08T04:58:38;2.95;;;1.15;;
50789;SDS011;37287;47.554;7.844;2023-08-08T05:01:31;2.72;;;1.20;;
50789;SDS011;37287;47.554;7.844;2023-08-08T05:04:21;1.85;;;1.10;;
50789;SDS011;37287;47.554;7.844;2023-08-08T05:07:12;1.38;;;1.10;;
50789;SDS011;37287;47.554;7.844;2023-08-08T05:10:03;1.10;;;1.00;;
50789;SDS011;37287;47.554;7.844;2023-08-08T05:12:58;1.27;;;1.17;;
50789;SDS011;37287;47.554;7.844;2023-08-08T05:15:48;0.90;;;0.90;;
50789;SDS011;37287;47.554;7.844;2023-08-08T05:18:40;1.15;;;1.05;;
50789;SDS011;37287;47.554;7.844;2023-08-08T05:21:31;1.45;;;1.20;;
50789;SDS011;37287;47.554;7.844;2023-08-08T05:24:27;1.30;;;1.20;;
50789;SDS011;37287;47.554;7.844;2023-08-08T05:27:17;1.80;;;1.10;;
50789;SDS011;37287;47.554;7.844;2023-08-08T05:30:08;2.33;;;1.20;;
50789;SDS011;37287;47.554;7.844;2023-08-08T05:32:59;5.13;;;1.08;;
50789;SDS011;37287;47.554;7.844;2023-08-08T05:35:54;1.20;;;1.10;;
50789;SDS011;37287;47.554;7.844;2023-08-08T05:38:45;1.20;;;1.10;;
50789;SDS011;37287;47.554;7.844;2023-08-08T05:41:38;3.70;;;1.05;;
50789;SDS011;37287;47.554;7.844;2023-08-08T05:44:28;1.23;;;1.10;;
50789;SDS011;37287;47.554;7.844;2023-08-08T05:47:19;1.15;;;1.05;;
50789;SDS011;37287;47.554;7.844;2023-08-08T05:49:48;1.80;;;1.10;;
50789;SDS011;37287;47.554;7.844;2023-08-08T05:52:20;2.60;;;1.23;;
50789;SDS011;37287;47.554;7.844;2023-08-08T05:54:47;1.42;;;1.33;;
50789;SDS011;37287;47.554;7.844;2023-08-08T05:57:14;1.13;;;1.08;;
50789;SDS011;37287;47.554;7.844;2023-08-08T06:00:06;1.40;;;1.10;;
50789;SDS011;37287;47.554;7.844;2023-08-08T06:02:59;1.20;;;1.10;;
50789;SDS011;37287;47.554;7.844;2023-08-08T06:05:50;1.17;;;1.08;;
50789;SDS011;37287;47.554;7.844;2023-08-08T06:08:41;1.60;;;1.20;;
50789;SDS011;37287;47.554;7.844;2023-08-08T06:11:31;1.50;;;1.13;;
50789;SDS011;37287;47.554;7.844;2023-08-08T06:14:22;1.20;;;1.10;;
50789;SDS011;37287;47.554;7.844;2023-08-08T06:17:13;1.88;;;1.00;;
50789;SDS011;37287;47.554;7.844;2023-08-08T06:20:05;1.38;;;1.10;;
50789;SDS011;37287;47.554;7.844;2023-08-08T06:22:57;1.13;;;1.05;;
50789;SDS011;37287;47.554;7.844;2023-08-08T06:25:50;1.40;;;1.10;;
50789;SDS011;37287;47.554;7.844;2023-08-08T06:28:40;1.02;;;0.82;;
50789;SDS011;37287;47.554;7.844;2023-08-08T06:31:31;5.50;;;1.30;;
50789;SDS011;37287;47.554;7.844;2023-08-08T06:34:22;1.50;;;1.10;;
50789;SDS011;37287;47.554;7.844;2023-08-08T06:37:12;1.55;;;1.13;;
50789;SDS011;37287;47.554;7.844;2023-08-08T06:40:05;2.58;;;1.30;;
50789;SDS011;37287;47.554;7.844;2023-08-08T06:42:57;1.60;;;1.30;;
50789;SDS011;37287;47.554;7.844;2023-08-08T06:45:48;2.40;;;1.20;;
50789;SDS011;37287;47.554;7.844;2023-08-08T06:48:38;1.95;;;1.10;;
50789;SDS011;37287;47.554;7.844;2023-08-08T06:51:29;1.17;;;0.90;;
50789;SDS011;37287;47.554;7.844;2023-08-08T06:54:20;1.35;;;1.25;;
50789;SDS011;37287;47.554;7.844;2023-08-08T06:57:13;1.00;;;0.90;;
50789;SDS011;37287;47.554;7.844;2023-08-08T06:59:41;1.77;;;1.33;;
50789;SDS011;37287;47.554;7.844;2023-08-08T07:02:34;1.55;;;1.23;;
50789;SDS011;37287;47.554;7.844;2023-08-08T07:05:10;1.35;;;1.25;;
50789;SDS011;37287;47.554;7.844;2023-08-08T07:08:00;1.45;;;1.20;;
50789;SDS011;37287;47.554;7.844;2023-08-08T07:10:54;1.63;;;1.00;;
50789;SDS011;37287;47.554;7.844;2023-08-08T07:13:46;1.60;;;1.50;;
50789;SDS011;37287;47.554;7.844;2023-08-08T07:16:37;1.83;;;1.45;;
50789;SDS011;37287;47.554;7.844;2023-08-08T07:19:28;1.77;;;1.20;;
50789;SDS011;37287;47.554;7.844;2023-08-08T07:22:19;1.20;;;1.10;;
50789;SDS011;37287;47.554;7.844;2023-08-08T07:25:09;2.53;;;1.55;;
50789;SDS011;37287;47.554;7.844;2023-08-08T07:28:01;1.10;;;1.00;;
50789;SDS011;37287;47.554;7.844;2023-08-08T07:30:52;1.30;;;1.00;;
50789;SDS011;37287;47.554;7.844;2023-08-08T07:33:46;1.33;;;1.17;;
50789;SDS011;37287;47.554;7.844;2023-08-08T07:36:37;1.88;;;1.30;;
50789;SDS011;37287;47.554;7.844;2023-08-08T07:39:27;1.00;;;1.00;;
50789;SDS011;37287;47.554;7.844;2023-08-08T07:42:17;4.03;;;1.40;;
50789;SDS011;37287;47.554;7.844;2023-08-08T07:45:08;1.60;;;1.10;;
50789;SDS011;37287;47.554;7.844;2023-08-08T07:47:59;1.10;;;1.00;;
50789;SDS011;37287;47.554;7.844;2023-08-08T07:50:50;1.73;;;1.17;;
50789;SDS011;37287;47.554;7.844;2023-08-08T07:53:41;1.40;;;1.25;;
50789;SDS011;37287;47.554;7.844;2023-08-08T07:56:20;1.55;;;1.10;;
50789;SDS011;37287;47.554;7.844;2023-08-08T07:58:47;1.42;;;1.23;;
50789;SDS011;37287;47.554;7.844;2023-08-08T08:01:44;2.30;;;0.90;;
50789;SDS011;37287;47.554;7.844;2023-08-08T08:04:35;1.00;;;1.00;;
50789;SDS011;37287;47.554;7.844;2023-08-08T08:07:30;0.90;;;0.90;;
50789;SDS011;37287;47.554;7.844;2023-08-08T08:10:22;1.00;;;0.90;;
50789;SDS011;37287;47.554;7.844;2023-08-08T08:34:43;1.25;;;1.00;;
50789;SDS011;37287;47.554;7.844;2023-08-08T08:37:10;1.17;;;0.90;;
50789;SDS011;37287;47.554;7.844;2023-08-08T08:40:02;0.70;;;0.70;;
50789;SDS011;37287;47.554;7.844;2023-08-08T08:42:31;0.80;;;0.80;;
50789;SDS011;37287;47.554;7.844;2023-08-08T08:45:23;0.88;;;0.63;;
50789;SDS011;37287;47.554;7.844;2023-08-08T08:48:15;1.02;;;0.82;;
50789;SDS011;37287;47.554;7.844;2023-08-08T08:51:06;0.80;;;0.80;;
50789;SDS011;37287;47.554;7.844;2023-08-08T08:53:58;1.25;;;0.63;;
50789;SDS011;37287;47.554;7.844;2023-08-08T08:56:48;0.77;;;0.77;;
50789;SDS011;37287;47.554;7.844;2023-08-08T08:59:41;0.55;;;0.55;;
50789;SDS011;37287;47.554;7.844;2023-08-08T09:02:32;1.05;;;0.70;;
50789;SDS011;37287;47.554;7.844;2023-08-08T09:05:25;0.60;;;0.60;;
50789;SDS011;37287;47.554;7.844;2023-08-08T09:08:16;1.77;;;0.98;;
50789;SDS011;37287;47.554;7.844;2023-08-08T09:11:12;0.75;;;0.75;;
50789;SDS011;37287;47.554;7.844;2023-08-08T09:14:03;1.10;;;0.65;;
50789;SDS011;37287;47.554;7.844;2023-08-08T09:16:54;1.00;;;0.73;;
50789;SDS011;37287;47.554;7.844;2023-08-08T09:19:45;0.60;;;0.60;;
50789;SDS011;37287;47.554;7.844;2023-08-08T09:22:38;0.98;;;0.70;;
50789;SDS011;37287;47.554;7.844;2023-08-08T09:25:28;0.80;;;0.80;;
50789;SDS011;37287;47.554;7.844;2023-08-08T09:28:19;0.70;;;0.70;;
50789;SDS011;37287;47.554;7.844;2023-08-08T09:31:11;3.10;;;0.70;;
50789;SDS011;37287;47.554;7.844;2023-08-08T09:34:02;0.60;;;0.60;;
50789;SDS011;37287;47.554;7.844;2023-08-08T09:36:53;0.65;;;0.60;;
50789;SDS011;37287;47.554;7.844;2023-08-08T09:39:44;0.85;;;0.80;;
50789;SDS011;37287;47.554;7.844;2023-08-08T09:42:35;1.00;;;0.70;;
50789;SDS011;37287;47.554;7.844;2023-08-08T09:45:11;0.95;;;0.57;;
50789;SDS011;37287;47.554;7.844;2023-08-08T09:47:38;0.50;;;0.50;;
50789;SDS011;37287;47.554;7.844;2023-08-08T09:50:07;0.65;;;0.63;;
50789;SDS011;37287;47.554;7.844;2023-08-08T09:52:58;0.57;;;0.57;;
50789;SDS011;37287;47.554;7.844;2023-08-08T09:55:49;0.65;;;0.65;;
50789;SDS011;37287;47.554;7.844;2023-08-08T09:58:41;1.65;;;0.70;;
50789;SDS011;37287;47.554;7.844;2023-08-08T10:01:32;0.85;;;0.60;;
50789;SDS011;37287;47.554;7.844;2023-08-08T10:04:00;0.90;;;0.52;;
50789;SDS011;37287;47.554;7.844;2023-08-08T10:06:29;0.73;;;0.50;;
50789;SDS011;37287;47.554;7.844;2023-08-08T10:09:21;1.05;;;0.70;;
50789;SDS011;37287;47.554;7.844;2023-08-08T10:12:16;0.50;;;0.50;;
50789;SDS011;37287;47.554;7.844;2023-08-08T10:15:08;0.70;;;0.70;;
50789;SDS011;37287;47.554;7.844;2023-08-08T10:17:59;0.65;;;0.65;;
50789;SDS011;37287;47.554;7.844;2023-08-08T10:20:51;0.50;;;0.50;;
50789;SDS011;37287;47.554;7.844;2023-08-08T10:23:43;0.77;;;0.60;;
50789;SDS011;37287;47.554;7.844;2023-08-08T10:26:34;0.77;;;0.70;;
50789;SDS011;37287;47.554;7.844;2023-08-08T10:29:41;0.93;;;0.70;;
50789;SDS011;37287;47.554;7.844;2023-08-08T10:32:43;1.67;;;0.75;;
50789;SDS011;37287;47.554;7.844;2023-08-08T10:35:36;1.02;;;0.50;;
50789;SDS011;37287;47.554;7.844;2023-08-08T10:38:08;0.73;;;0.73;;
50789;SDS011;37287;47.554;7.844;2023-08-08T10:41:02;0.55;;;0.40;;
50789;SDS011;37287;47.554;7.844;2023-08-08T10:43:54;3.00;;;0.60;;
50789;SDS011;37287;47.554;7.844;2023-08-08T10:46:46;0.68;;;0.60;;
50789;SDS011;37287;47.554;7.844;2023-08-08T10:49:34;1.02;;;0.60;;
50789;SDS011;37287;47.554;7.844;2023-08-08T10:52:25;0.70;;;0.63;;
50789;SDS011;37287;47.554;7.844;2023-08-08T10:58:13;1.38;;;0.73;;
50789;SDS011;37287;47.554;7.844;2023-08-08T11:00:48;1.00;;;0.60;;
50789;SDS011;37287;47.554;7.844;2023-08-08T11:03:16;1.00;;;0.80;;
50789;SDS011;37287;47.554;7.844;2023-08-08T11:05:45;0.68;;;0.68;;
50789;SDS011;37287;47.554;7.844;2023-08-08T11:08:38;0.98;;;0.75;;
50789;SDS011;37287;47.554;7.844;2023-08-08T11:11:11;0.70;;;0.68;;
50789;SDS011;37287;47.554;7.844;2023-08-08T11:14:11;1.27;;;0.82;;
50789;SDS011;37287;47.554;7.844;2023-08-08T11:17:02;1.20;;;0.90;;
50789;SDS011;37287;47.554;7.844;2023-08-08T11:19:53;2.85;;;0.75;;
50789;SDS011;37287;47.554;7.844;2023-08-08T11:22:21;0.60;;;0.60;;
50789;SDS011;37287;47.554;7.844;2023-08-08T11:25:14;0.75;;;0.60;;
50789;SDS011;37287;47.554;7.844;2023-08-08T11:28:06;0.60;;;0.60;;
50789;SDS011;37287;47.554;7.844;2023-08-08T11:30:56;1.13;;;0.80;;
50789;SDS011;37287;47.554;7.844;2023-08-08T11:33:49;0.93;;;0.82;;
50789;SDS011;37287;47.554;7.844;2023-08-08T11:36:39;0.60;;;0.60;;
50789;SDS011;37287;47.554;7.844;2023-08-08T11:39:33;0.50;;;0.50;;
50789;SDS011;37287;47.554;7.844;2023-08-08T11:42:24;0.85;;;0.60;;
50789;SDS011;37287;47.554;7.844;2023-08-08T11:45:00;0.68;;;0.63;;
50789;SDS011;37287;47.554;7.844;2023-08-08T11:47:27;0.70;;;0.70;;
50789;SDS011;37287;47.554;7.844;2023-08-08T11:50:25;3.85;;;0.98;;
50789;SDS011;37287;47.554;7.844;2023-08-08T11:53:18;0.80;;;0.70;;
50789;SDS011;37287;47.554;7.844;2023-08-08T11:56:10;0.90;;;0.73;;
50789;SDS011;37287;47.554;7.844;2023-08-08T11:59:01;1.20;;;0.57;;
50789;SDS011;37287;47.554;7.844;2023-08-08T12:01:52;0.60;;;0.60;;
50789;SDS011;37287;47.554;7.844;2023-08-08T12:04:46;0.65;;;0.52;;
50789;SDS011;37287;47.554;7.844;2023-08-08T12:07:36;1.17;;;0.63;;
50789;SDS011;37287;47.554;7.844;2023-08-08T12:10:27;0.93;;;0.50;;
50789;SDS011;37287;47.554;7.844;2023-08-08T12:13:22;0.70;;;0.52;;
50789;SDS011;37287;47.554;7.844;2023-08-08T12:16:14;0.70;;;0.70;;
50789;SDS011;37287;47.554;7.844;2023-08-08T12:19:07;2.03;;;0.85;;
50789;SDS011;37287;47.554;7.844;2023-08-08T12:22:02;0.70;;;0.70;;
50789;SDS011;37287;47.554;7.844;2023-08-08T12:24:53;0.70;;;0.68;;
50789;SDS011;37287;47.554;7.844;2023-08-08T12:27:20;0.85;;;0.85;;
50789;SDS011;37287;47.554;7.844;2023-08-08T12:29:47;0.73;;;0.47;;
50789;SDS011;37287;47.554;7.844;2023-08-08T12:32:37;0.60;;;0.60;;
50789;SDS011;37287;47.554;7.844;2023-08-08T12:35:28;0.50;;;0.50;;
50789;SDS011;37287;47.554;7.844;2023-08-08T12:38:18;0.90;;;0.70;;
50789;SDS011;37287;47.554;7.844;2023-08-08T12:41:09;2.15;;;0.70;;
50789;SDS011;37287;47.554;7.844;2023-08-08T12:44:01;0.70;;;0.70;;
50789;SDS011;37287;47.554;7.844;2023-08-08T12:46:53;1.15;;;0.95;;
50789;SDS011;37287;47.554;7.844;2023-08-08T12:49:36;1.17;;;0.75;;
50789;SDS011;37287;47.554;7.844;2023-08-08T12:52:06;1.20;;;0.70;;
50789;SDS011;37287;47.554;7.844;2023-08-08T12:54:56;0.77;;;0.77;;
50789;SDS011;37287;47.554;7.844;2023-08-08T12:57:47;0.85;;;0.70;;
50789;SDS011;37287;47.554;7.844;2023-08-08T13:00:38;0.60;;;0.60;;
50789;SDS011;37287;47.554;7.844;2023-08-08T13:03:30;0.88;;;0.70;;
50789;SDS011;37287;47.554;7.844;2023-08-08T13:06:47;0.95;;;0.70;;
50789;SDS011;37287;47.554;7.844;2023-08-08T13:10:04;0.77;;;0.68;;
50789;SDS011;37287;47.554;7.844;2023-08-08T13:12:54;0.82;;;0.77;;
50789;SDS011;37287;47.554;7.844;2023-08-08T13:15:46;0.70;;;0.70;;
50789;SDS011;37287;47.554;7.844;2023-08-08T13:18:37;0.70;;;0.70;;
50789;SDS011;37287;47.554;7.844;2023-08-08T13:21:28;1.42;;;0.70;;
50789;SDS011;37287;47.554;7.844;2023-08-08T13:23:57;2.90;;;0.88;;
50789;SDS011;37287;47.554;7.844;2023-08-08T13:26:24;1.02;;;0.80;;
50789;SDS011;37287;47.554;7.844;2023-08-08T13:29:15;0.65;;;0.50;;
50789;SDS011;37287;47.554;7.844;2023-08-08T13:32:09;1.63;;;0.90;;
50789;SDS011;37287;47.554;7.844;2023-08-08T13:42:21;0.98;;;0.90;;
50789;SDS011;37287;47.554;7.844;2023-08-08T13:45:13;2.28;;;0.80;;
50789;SDS011;37287;47.554;7.844;2023-08-08T13:47:46;1.13;;;0.90;;
50789;SDS011;37287;47.554;7.844;2023-08-08T13:50:37;1.52;;;0.73;;
50789;SDS011;37287;47.554;7.844;2023-08-08T13:53:28;0.50;;;0.50;;
50789;SDS011;37287;47.554;7.844;2023-08-08T13:56:21;0.70;;;0.65;;
50789;SDS011;37287;47.554;7.844;2023-08-08T13:59:12;0.50;;;0.50;;
50789;SDS011;37287;47.554;7.844;2023-08-08T14:02:04;1.15;;;0.63;;
50789;SDS011;37287;47.554;7.844;2023-08-08T14:04:56;1.30;;;0.70;;
50789;SDS011;37287;47.554;7.844;2023-08-08T14:07:46;1.25;;;1.00;;
50789;SDS011;37287;47.554;7.844;2023-08-08T14:10:38;0.63;;;0.63;;
50789;SDS011;37287;47.554;7.844;2023-08-08T14:13:30;0.75;;;0.70;;
50789;SDS011;37287;47.554;7.844;2023-08-08T14:16:24;0.93;;;0.82;;
50789;SDS011;37287;47.554;7.844;2023-08-08T14:19:16;0.57;;;0.43;;
50789;SDS011;37287;47.554;7.844;2023-08-08T14:21:43;0.85;;;0.68;;
50789;SDS011;37287;47.554;7.844;2023-08-08T14:24:10;1.33;;;0.70;;
50789;SDS011;37287;47.554;7.844;2023-08-08T14:27:00;2.22;;;0.77;;
50789;SDS011;37287;47.554;7.844;2023-08-08T14:29:50;0.70;;;0.70;;
50789;SDS011;37287;47.554;7.844;2023-08-08T14:32:44;0.88;;;0.88;;
50789;SDS011;37287;47.554;7.844;2023-08-08T14:35:34;0.77;;;0.73;;
50789;SDS011;37287;47.554;7.844;2023-08-08T14:38:25;1.33;;;0.80;;
50789;SDS011;37287;47.554;7.844;2023-08-08T14:41:15;0.93;;;0.80;;
50789;SDS011;37287;47.554;7.844;2023-08-08T14:44:06;0.88;;;0.65;;
50789;SDS011;37287;47.554;7.844;2023-08-08T14:46:56;1.38;;;0.73;;
50789;SDS011;37287;47.554;7.844;2023-08-08T14:49:48;1.45;;;0.70;;
50789;SDS011;37287;47.554;7.844;2023-08-08T14:52:19;0.85;;;0.70;;
50789;SDS011;37287;47.554;7.844;2023-08-08T14:54:49;0.82;;;0.70;;
50789;SDS011;37287;47.554;7.844;2023-08-08T14:57:40;0.77;;;0.73;;
50789;SDS011;37287;47.554;7.844;2023-08-08T15:00:31;0.70;;;0.70;;
50789;SDS011;37287;47.554;7.844;2023-08-08T15:02:58;0.80;;;0.75;;
50789;SDS011;37287;47.554;7.844;2023-08-08T15:05:25;1.00;;;0.63;;
50789;SDS011;37287;47.554;7.844;2023-08-08T15:07:52;0.70;;;0.68;;
50789;SDS011;37287;47.554;7.844;2023-08-08T15:10:43;0.80;;;0.80;;
50789;SDS011;37287;47.554;7.844;2023-08-08T15:13:33;5.47;;;0.70;;
50789;SDS011;37287;47.554;7.844;2023-08-08T15:16:23;0.50;;;0.50;;
50789;SDS011;37287;47.554;7.844;2023-08-08T15:19:15;1.40;;;0.80;;
50789;SDS011;37287;47.554;7.844;2023-08-08T15:22:05;0.88;;;0.63;;
50789;SDS011;37287;47.554;7.844;2023-08-08T15:24:57;0.80;;;0.77;;
50789;SDS011;37287;47.554;7.844;2023-08-08T15:27:47;1.50;;;0.90;;
50789;SDS011;37287;47.554;7.844;2023-08-08T15:30:18;1.90;;;0.93;;
50789;SDS011;37287;47.554;7.844;2023-08-08T15:32:44;1.05;;;0.73;;
50789;SDS011;37287;47.554;7.844;2023-08-08T15:35:35;1.35;;;0.80;;
50789;SDS011;37287;47.554;7.844;2023-08-08T15:38:02;1.05;;;0.80;;
50789;SDS011;37287;47.554;7.844;2023-08-08T15:40:53;2.60;;;0.70;;
50789;SDS011;37287;47.554;7.844;2023-08-08T15:43:47;0.80;;;0.80;;
50789;SDS011;37287;47.554;7.844;2023-08-08T15:46:38;2.05;;;0.80;;
50789;SDS011;37287;47.554;7.844;2023-08-08T15:49:30;3.50;;;0.60;;
50789;SDS011;37287;47.554;7.844;2023-08-08T15:52:20;1.55;;;0.50;;
50789;SDS011;37287;47.554;7.844;2023-08-08T15:55:11;1.65;;;0.77;;
50789;SDS011;37287;47.554;7.844;2023-08-08T15:57:40;1.92;;;0.70;;
50789;SDS011;37287;47.554;7.844;2023-08-08T16:00:07;1.10;;;0.85;;
50789;SDS011;37287;47.554;7.844;2023-08-08T16:02:36;0.80;;;0.80;;
50789;SDS011;37287;47.554;7.844;2023-08-08T16:05:05;1.05;;;0.70;;
50789;SDS011;37287;47.554;7.844;2023-08-08T16:07:32;0.60;;;0.60;;
50789;SDS011;37287;47.554;7.844;2023-08-08T16:10:23;0.70;;;0.70;;
50789;SDS011;37287;47.554;7.844;2023-08-08T16:13:14;1.08;;;0.80;;
50789;SDS011;37287;47.554;7.844;2023-08-08T16:16:04;0.60;;;0.60;;
50789;SDS011;37287;47.554;7.844;2023-08-08T16:18:55;1.95;;;0.80;;
50789;SDS011;37287;47.554;7.844;2023-08-08T16:21:50;1.15;;;0.70;;
50789;SDS011;37287;47.554;7.844;2023-08-08T16:24:40;0.80;;;0.60;;
50789;SDS011;37287;47.554;7.844;2023-08-08T16:27:32;1.15;;;0.95;;
50789;SDS011;37287;47.554;7.844;2023-08-08T16:30:23;0.65;;;0.60;;
50789;SDS011;37287;47.554;7.844;2023-08-08T16:33:13;1.83;;;0.70;;
50789;SDS011;37287;47.554;7.844;2023-08-08T16:36:05;0.90;;;0.80;;
50789;SDS011;37287;47.554;7.844;2023-08-08T16:38:59;1.75;;;0.90;;
50789;SDS011;37287;47.554;7.844;2023-08-08T16:41:50;2.65;;;1.00;;
50789;SDS011;37287;47.554;7.844;2023-08-08T16:44:47;0.88;;;0.60;;
50789;SDS011;37287;47.554;7.844;2023-08-08T16:47:37;4.82;;;0.80;;
50789;SDS011;37287;47.554;7.844;2023-08-08T16:50:20;1.67;;;0.70;;
50789;SDS011;37287;47.554;7.844;2023-08-08T16:53:10;0.65;;;0.65;;
50789;SDS011;37287;47.554;7.844;2023-08-08T16:56:02;1.13;;;0.85;;
50789;SDS011;37287;47.554;7.844;2023-08-08T16:58:57;1.40;;;0.90;;
50789;SDS011;37287;47.554;7.844;2023-08-08T17:01:49;0.70;;;0.68;;
50789;SDS011;37287;47.554;7.844;2023-08-08T17:04:16;0.77;;;0.77;;
50789;SDS011;37287;47.554;7.844;2023-08-08T17:07:08;0.80;;;0.70;;
50789;SDS011;37287;47.554;7.844;2023-08-08T17:09:58;1.70;;;1.00;;
50789;SDS011;37287;47.554;7.844;2023-08-08T17:12:52;1.00;;;0.90;;
50789;SDS011;37287;47.554;7.844;2023-08-08T17:15:42;0.75;;;0.63;;
50789;SDS011;37287;47.554;7.844;2023-08-08T17:18:34;2.97;;;0.95;;
50789;SDS011;37287;47.554;7.844;2023-08-08T17:21:25;1.40;;;0.60;;
50789;SDS011;37287;47.554;7.844;2023-08-08T17:24:18;1.58;;;0.98;;
50789;SDS011;37287;47.554;7.844;2023-08-08T17:27:08;1.33;;;0.70;;
50789;SDS011;37287;47.554;7.844;2023-08-08T17:29:59;0.75;;;0.70;;
50789;SDS011;37287;47.554;7.844;2023-08-08T17:32:49;0.60;;;0.60;;
50789;SDS011;37287;47.554;7.844;2023-08-08T17:35:42;1.63;;;0.85;;
50789;SDS011;37287;47.554;7.844;2023-08-08T17:38:34;1.90;;;0.85;;